Blue Capricorn — WDH8230 — position and weather

sailwx.info

Track history (hours):
 
Tides and Currents Weather Stations Pressure Air Temp Water Temp Dewpoint Dewpoint Depression Visibility Wind Speed Wind Dir Waves Ship Positions

Blue Capricorn

Owner: Matheson, Kenneth R, Houston, TX. More information available from US FCC via Universal Licensing System and Coast Guard Vessel Documentation Center.

Last reported at 2018-Jul-16 13:59 UTC. Time now 2018-Jul-16 14:32 UTC.
Position N 28°54' W 095°24'.

Length 120 m; draft 3 m.

Type: . MMSI: 367656820.

Date/timePositionNaut miles runAvg speedWind from/ knotsBaromVisibWave heightAir tempDewpointWater temp
2018-Jul-16 13:59N 28°54' W 095°24'0 0.9
2018-Jul-16 13:29N 28°53' W 095°25'1 1.9
2018-Jul-16 12:47N 28°53' W 095°26'0 1.4
2018-Jul-16 12:26N 28°52' W 095°26'2 3.2
2018-Jul-16 11:48N 28°52' W 095°29'1 3.8
2018-Jul-16 11:30N 28°51' W 095°30'3 4.1
2018-Jul-16 10:45N 28°49' W 095°32'9 4.5
2018-Jul-16 08:47N 28°45' W 095°41'3 4.8
2018-Jul-16 08:16N 28°44' W 095°44'2 4.4
2018-Jul-16 07:55N 28°45' W 095°46'10 3.5
2018-Jul-16 05:00N 28°42' W 095°57'  
2018-Jul-14 00:50N 28°54' W 095°23'0 0.2
2018-Jul-13 23:00N 28°54' W 095°23'3 1.3
2018-Jul-13 20:42N 28°56' W 095°20'2 4.6
2018-Jul-13 20:13N 28°57' W 095°18'1 4.9
2018-Jul-13 20:00N 28°58' W 095°17'2 4.7
2018-Jul-13 19:30N 28°60' W 095°15'2 4.8
2018-Jul-13 19:01N 29°02' W 095°14'2 4.4
2018-Jul-13 18:30N 29°04' W 095°13'2 4.2
2018-Jul-13 18:01N 29°05' W 095°12'2 3.9
2018-Jul-13 17:31N 29°07' W 095°11'2 4.5
2018-Jul-13 17:01N 29°09' W 095°09'2 4.8
2018-Jul-13 16:31N 29°10' W 095°07'2 4.8
2018-Jul-13 16:01N 29°11' W 095°05'2 4.8
2018-Jul-13 15:31N 29°13' W 095°02'2 4.7
2018-Jul-13 15:00N 29°15' W 095°01'2 4.9
2018-Jul-13 14:31N 29°16' W 094°59'5 5.2
2018-Jul-13 13:31N 29°18' W 094°53'2 4.8
2018-Jul-13 13:00N 29°19' W 094°51'2 3.7
2018-Jul-13 12:31N 29°21' W 094°50'2 3.6
2018-Jul-13 12:01N 29°22' W 094°48'2 3.4
2018-Jul-13 11:30N 29°24' W 094°49'2 3.6
2018-Jul-13 11:00N 29°25' W 094°50'2 3.6
2018-Jul-13 10:27N 29°27' W 094°51'2 4.3
2018-Jul-13 10:00N 29°29' W 094°52'2 4.8
2018-Jul-13 09:30N 29°31' W 094°53'3 5.1
2018-Jul-13 09:01N 29°33' W 094°55'3 5.5
2018-Jul-13 08:30N 29°35' W 094°56'3 5.6
2018-Jul-13 08:01N 29°38' W 094°58'3 6.4
2018-Jul-13 07:30N 29°41' W 094°59'3 5.8
2018-Jul-13 07:00N 29°43' W 095°01'3 5.4
2018-Jul-13 06:30N 29°45' W 095°04'2 3.2
2018-Jul-13 05:46N 29°47' W 095°04'0 0.2
2018-Jul-13 05:23N 29°47' W 095°05'0 0.0
2018-Jul-13 04:06N 29°47' W 095°04'0 1.6
2018-Jul-13 03:59N 29°47' W 095°05'1 2.6
2018-Jul-13 03:30N 29°46' W 095°06'0 0.0
2018-Jul-13 02:45N 29°46' W 095°06'0 0.5
2018-Jul-13 02:09N 29°46' W 095°06'0 2.8
2018-Jul-13 01:59N 29°46' W 095°05'3 5.6
2018-Jul-13 01:27N 29°44' W 095°03'2 5.4
2018-Jul-13 01:00N 29°42' W 095°01'3 5.9
2018-Jul-13 00:30N 29°40' W 094°58'3 6.5
2018-Jul-13 00:00N 29°37' W 094°57'4 8.2
2018-Jul-12 23:31N 29°34' W 094°55'4 7.0
2018-Jul-12 22:58N 29°30' W 094°52'8 6.9
2018-Jul-12 21:52N 29°24' W 094°49'2 6.5
2018-Jul-12 21:30N 29°21' W 094°49'3 6.6
2018-Jul-12 21:00N 29°19' W 094°52'3 6.2
2018-Jul-12 20:31N 29°17' W 094°54'3 6.1
2018-Jul-12 20:01N 29°17' W 094°58'3 5.9
2018-Jul-12 19:30N 29°15' W 095°00'3 6.4
2018-Jul-12 19:01N 29°13' W 095°03'3 6.2
2018-Jul-12 18:31N 29°11' W 095°05'3 6.2
2018-Jul-12 18:01N 29°09' W 095°09'3 6.2
2018-Jul-12 17:31N 29°07' W 095°11'3 5.9
2018-Jul-12 17:01N 29°05' W 095°13'3 6.0
2018-Jul-12 16:31N 29°02' W 095°14'3 6.2
2018-Jul-12 16:00N 28°59' W 095°16'2 0.6
2018-Jul-12 12:44N 28°58' W 095°17'1 3.8
2018-Jul-12 12:31N 28°58' W 095°17'2 3.8
2018-Jul-12 12:00N 28°60' W 095°15'2 3.7
2018-Jul-12 11:29N 29°01' W 095°14'2 3.6
2018-Jul-12 11:00N 29°03' W 095°13'2 3.6
2018-Jul-12 10:30N 29°05' W 095°13'2 3.6
2018-Jul-12 10:01N 29°06' W 095°12'2 3.8
2018-Jul-12 09:30N 29°08' W 095°11'2 4.1
2018-Jul-12 09:00N 29°09' W 095°09'2 5.0
2018-Jul-12 08:30N 29°10' W 095°06'2 4.8
2018-Jul-12 08:00N 29°12' W 095°04'2 4.5
2018-Jul-12 07:31N 29°13' W 095°02'2 4.5
2018-Jul-12 07:00N 29°15' W 095°00'2 4.5
2018-Jul-12 06:30N 29°17' W 094°59'2 4.1
2018-Jul-12 06:00N 29°17' W 094°57'2 4.0
2018-Jul-12 05:30N 29°17' W 094°54'2 4.2
2018-Jul-12 05:01N 29°19' W 094°53'2 4.6
2018-Jul-12 04:30N 29°20' W 094°50'2 4.4
2018-Jul-12 04:00N 29°21' W 094°49'3 6.6
2018-Jul-12 03:30N 29°24' W 094°46'1 3.0
2018-Jul-12 03:00N 29°25' W 094°44'1 2.7
2018-Jul-12 02:28N 29°26' W 094°43'0 0.0
2018-Jul-12 01:58N 29°26' W 094°43'11 3.4
2018-Jul-11 22:47N 29°32' W 094°54'2 6.2
2018-Jul-11 22:31N 29°33' W 094°55'3 6.2
2018-Jul-11 22:01N 29°36' W 094°57'3 5.6
2018-Jul-11 21:31N 29°38' W 094°58'3 5.7
2018-Jul-11 21:00N 29°41' W 094°59'3 5.7
2018-Jul-11 20:30N 29°43' W 095°01'3 5.3
2018-Jul-11 19:59N 29°45' W 095°04'3 1.7
2018-Jul-11 17:59N 29°44' W 095°08'1 1.1
2018-Jul-11 17:26N 29°44' W 095°07'2 1.0
2018-Jul-11 15:20N 29°46' W 095°05'2 2.4
2018-Jul-11 14:28N 29°48' W 095°04'0 0.0
2018-Jul-11 14:01N 29°48' W 095°04'0 0.0
2018-Jul-11 13:30N 29°48' W 095°04'0 0.0
2018-Jul-11 09:17N 29°48' W 095°04'1 3.5
2018-Jul-11 09:00N 29°47' W 095°05'2 2.2
2018-Jul-11 08:10N 29°46' W 095°07'0 0.0
2018-Jul-11 07:58N 29°46' W 095°07'0 0.0
2018-Jul-11 07:22N 29°46' W 095°07'0 0.0
2018-Jul-11 06:37N 29°46' W 095°07'0 0.0
2018-Jul-11 06:22N 29°46' W 095°07'0 0.0
2018-Jul-11 05:55N 29°46' W 095°07'0 0.3
2018-Jul-11 05:18N 29°46' W 095°07'1 3.7
2018-Jul-11 05:00N 29°46' W 095°05'3 5.3
2018-Jul-11 04:29N 29°44' W 095°03'2 5.1
2018-Jul-11 04:00N 29°42' W 095°01'3 5.3
2018-Jul-11 03:30N 29°41' W 094°59'2 4.9
2018-Jul-11 03:00N 29°38' W 094°58'3 5.3
2018-Jul-11 02:30N 29°36' W 094°57'3 5.1
2018-Jul-11 02:00N 29°34' W 094°55'2 4.9
2018-Jul-11 01:30N 29°32' W 094°53'2 4.7
2018-Jul-11 01:00N 29°30' W 094°52'8 4.2
2018-Jul-10 23:01N 29°22' W 094°48'0 0.2
2018-Jul-10 20:51N 29°22' W 094°47'2 2.3
2018-Jul-10 20:12N 29°21' W 094°49'1 6.2
2018-Jul-10 19:59N 29°20' W 094°50'3 6.4
2018-Jul-10 19:30N 29°18' W 094°53'3 5.1
2018-Jul-10 19:00N 29°17' W 094°56'3 5.9
2018-Jul-10 18:30N 29°17' W 094°59'3 6.1
2018-Jul-10 18:00N 29°14' W 095°01'3 6.0
2018-Jul-10 17:30N 29°12' W 095°03'3 6.1
2018-Jul-10 17:00N 29°10' W 095°06'3 6.2
2018-Jul-10 16:30N 29°09' W 095°09'3 6.0
2018-Jul-10 16:00N 29°07' W 095°12'3 5.7
2018-Jul-10 15:30N 29°04' W 095°13'3 6.1
2018-Jul-10 15:00N 29°01' W 095°14'7 1.3
2018-Jul-10 09:49N 28°56' W 095°20'1 0.7
2018-Jul-10 08:55N 28°57' W 095°20'0 0.0
2018-Jul-10 07:31N 28°57' W 095°20'0 0.0
2018-Jul-10 07:25N 28°57' W 095°20'0 0.0
2018-Jul-10 06:58N 28°57' W 095°20'0 0.0
2018-Jul-10 06:25N 28°57' W 095°20'0 0.0
2018-Jul-10 05:58N 28°57' W 095°20'0 0.8
2018-Jul-10 05:27N 28°57' W 095°20'1 0.9
2018-Jul-10 04:52N 28°56' W 095°19'2 4.7
2018-Jul-10 04:27N 28°58' W 095°17'2 4.6
2018-Jul-10 03:56N 28°59' W 095°16'2 5.1
2018-Jul-10 03:30N 29°01' W 095°14'2 4.9
2018-Jul-10 03:00N 29°03' W 095°13'3 5.0
2018-Jul-10 02:30N 29°06' W 095°12'2 4.7
2018-Jul-10 02:01N 29°08' W 095°11'2 4.8
2018-Jul-10 01:31N 29°09' W 095°09'3 5.1
2018-Jul-10 01:01N 29°11' W 095°06'2 5.0
2018-Jul-10 00:30N 29°12' W 095°04'2 4.6
2018-Jul-10 00:01N 29°14' W 095°02'2 4.8
2018-Jul-09 23:30N 29°15' W 094°60'2 4.5
2018-Jul-09 23:01N 29°17' W 094°58'2 4.4
2018-Jul-09 22:30N 29°17' W 094°56'2 3.9
2018-Jul-09 22:00N 29°17' W 094°53'2 4.7
2018-Jul-09 21:31N 29°19' W 094°52'3 5.0
2018-Jul-09 20:59N 29°21' W 094°49'8 5.4
2018-Jul-09 19:30N 29°29' W 094°51'3 6.1
2018-Jul-09 19:00N 29°31' W 094°53'3 5.8
2018-Jul-09 18:30N 29°34' W 094°55'3 5.6
2018-Jul-09 18:00N 29°36' W 094°57'3 5.7
2018-Jul-09 17:31N 29°39' W 094°58'3 6.3
2018-Jul-09 17:01N 29°41' W 094°59'4 5.7
2018-Jul-09 16:15N 29°44' W 095°03'3 3.4
2018-Jul-09 15:23N 29°47' W 095°04'1 1.6
2018-Jul-09 14:56N 29°46' W 095°05'1 1.0
2018-Jul-09 13:45N 29°46' W 095°06'1 1.9
2018-Jul-09 13:16N 29°46' W 095°05'1 0.5
2018-Jul-09 11:56N 29°46' W 095°05'2 4.0
2018-Jul-09 11:30N 29°45' W 095°04'3 4.4
2018-Jul-09 10:53N 29°43' W 095°01'2 4.2
2018-Jul-09 10:29N 29°42' W 094°60'3 5.1
2018-Jul-09 09:58N 29°40' W 094°58'2 5.3
2018-Jul-09 09:30N 29°37' W 094°58'3 5.8
2018-Jul-09 09:01N 29°35' W 094°56'3 5.5
2018-Jul-09 08:30N 29°33' W 094°54'11 6.8
2018-Jul-09 06:54N 29°23' W 094°48'2 4.8
2018-Jul-09 06:29N 29°23' W 094°46'3 0.5
2018-Jul-09 01:18N 29°21' W 094°49'1 4.3
2018-Jul-09 01:00N 29°21' W 094°50'3 6.0
2018-Jul-09 00:30N 29°19' W 094°52'3 5.3
2018-Jul-09 00:00N 29°17' W 094°55'3 6.8
2018-Jul-08 23:31N 29°17' W 094°59'3 6.4
2018-Jul-08 23:00N 29°14' W 095°01'3 5.8
2018-Jul-08 22:30N 29°12' W 095°03'3 6.0
2018-Jul-08 22:00N 29°11' W 095°06'3 5.8
2018-Jul-08 21:30N 29°09' W 095°09'3 5.7
2018-Jul-08 21:00N 29°07' W 095°11'3 5.3
2018-Jul-08 20:30N 29°05' W 095°13'3 5.4
2018-Jul-08 19:58N 29°02' W 095°14'2 5.3
2018-Jul-08 19:30N 28°60' W 095°15'2 0.5
2018-Jul-08 14:44N 28°58' W 095°17'2 3.1
2018-Jul-08 14:11N 28°59' W 095°15'1 5.4
2018-Jul-08 14:01N 29°00' W 095°15'3 5.1
2018-Jul-08 13:30N 29°03' W 095°14'3 5.0
2018-Jul-08 13:00N 29°05' W 095°12'2 3.9
2018-Jul-08 12:30N 29°07' W 095°12'1 1.0
2018-Jul-08 12:00N 29°07' W 095°11'2 4.1
2018-Jul-08 11:30N 29°09' W 095°10'3 5.2
2018-Jul-08 11:00N 29°10' W 095°07'1 2.0
2018-Jul-08 10:29N 29°10' W 095°06'1 2.5
2018-Jul-08 10:01N 29°11' W 095°05'2 4.3
2018-Jul-08 09:30N 29°12' W 095°03'1 2.5
2018-Jul-08 09:00N 29°13' W 095°02'2 3.8
2018-Jul-08 08:30N 29°15' W 095°01'3 5.4
2018-Jul-08 08:01N 29°17' W 094°59'3 5.4
2018-Jul-08 07:30N 29°17' W 094°56'3 5.1
2018-Jul-08 07:01N 29°18' W 094°53'3 5.3
2018-Jul-08 06:30N 29°20' W 094°51'3 5.5
2018-Jul-08 06:01N 29°22' W 094°48'4 5.1
2018-Jul-08 05:19N 29°25' W 094°50'2 5.8
2018-Jul-08 05:00N 29°27' W 094°51'3 6.1
2018-Jul-08 04:30N 29°30' W 094°52'3 6.1
2018-Jul-08 04:00N 29°32' W 094°54'3 6.1
2018-Jul-08 03:31N 29°35' W 094°56'3 6.0
2018-Jul-08 02:58N 29°37' W 094°58'3 6.3
2018-Jul-08 02:30N 29°40' W 094°59'3 6.5
2018-Jul-08 02:00N 29°43' W 095°01'3 5.6
2018-Jul-08 01:30N 29°44' W 095°04'3 1.5
2018-Jul-07 23:45N 29°47' W 095°04'1 3.0
2018-Jul-07 23:15N 29°46' W 095°05'0 0.0
2018-Jul-07 22:38N 29°46' W 095°05'1 0.5
2018-Jul-07 19:48N 29°45' W 095°06'1 3.9
2018-Jul-07 19:28N 29°44' W 095°07'3 0.2
2018-Jul-07 07:53N 29°45' W 095°11'2 6.2
2018-Jul-07 07:29N 29°44' W 095°08'2 3.8
2018-Jul-07 06:50N 29°46' W 095°06'0 0.5
2018-Jul-07 06:21N 29°46' W 095°06'0 0.1
2018-Jul-06 21:51N 29°45' W 095°06'0 0.1
2018-Jul-06 20:47N 29°45' W 095°06'0 0.1
2018-Jul-06 19:26N 29°45' W 095°06'1 2.3
2018-Jul-06 18:56N 29°46' W 095°05'1 0.5
2018-Jul-06 16:37N 29°47' W 095°05'1 4.2
2018-Jul-06 16:27N 29°47' W 095°05'1 0.7
2018-Jul-06 15:15N 29°47' W 095°06'1 3.8
2018-Jul-06 14:59N 29°47' W 095°05'  
Track history (hours):
 
Tides and Currents Weather Stations Pressure Air Temp Water Temp Dewpoint Dewpoint Depression Visibility Wind Speed Wind Dir Waves Ship Positions

Blue Capricorn

Owner: Matheson, Kenneth R, Houston, TX. More information available from US FCC via Universal Licensing System and Coast Guard Vessel Documentation Center.

Last reported at 2018-Jul-16 13:59 UTC. Time now 2018-Jul-16 14:32 UTC.
Position N 28°54' W 095°24'.

Length 120 m; draft 3 m.

Type: . MMSI: 367656820.

Date/timePositionNaut miles runAvg speedWind from/ knotsBaromVisibWave heightAir tempDewpointWater temp
2018-Jul-16 13:59N 28°54' W 095°24'0 0.9
2018-Jul-16 13:29N 28°53' W 095°25'1 1.9
2018-Jul-16 12:47N 28°53' W 095°26'0 1.4
2018-Jul-16 12:26N 28°52' W 095°26'2 3.2
2018-Jul-16 11:48N 28°52' W 095°29'1 3.8
2018-Jul-16 11:30N 28°51' W 095°30'3 4.1
2018-Jul-16 10:45N 28°49' W 095°32'9 4.5
2018-Jul-16 08:47N 28°45' W 095°41'3 4.8
2018-Jul-16 08:16N 28°44' W 095°44'2 4.4
2018-Jul-16 07:55N 28°45' W 095°46'10 3.5
2018-Jul-16 05:00N 28°42' W 095°57'  
2018-Jul-14 00:50N 28°54' W 095°23'0 0.2
2018-Jul-13 23:00N 28°54' W 095°23'3 1.3
2018-Jul-13 20:42N 28°56' W 095°20'2 4.6
2018-Jul-13 20:13N 28°57' W 095°18'1 4.9
2018-Jul-13 20:00N 28°58' W 095°17'2 4.7
2018-Jul-13 19:30N 28°60' W 095°15'2 4.8
2018-Jul-13 19:01N 29°02' W 095°14'2 4.4
2018-Jul-13 18:30N 29°04' W 095°13'2 4.2
2018-Jul-13 18:01N 29°05' W 095°12'2 3.9
2018-Jul-13 17:31N 29°07' W 095°11'2 4.5
2018-Jul-13 17:01N 29°09' W 095°09'2 4.8
2018-Jul-13 16:31N 29°10' W 095°07'2 4.8
2018-Jul-13 16:01N 29°11' W 095°05'2 4.8
2018-Jul-13 15:31N 29°13' W 095°02'2 4.7
2018-Jul-13 15:00N 29°15' W 095°01'2 4.9
2018-Jul-13 14:31N 29°16' W 094°59'5 5.2
2018-Jul-13 13:31N 29°18' W 094°53'2 4.8
2018-Jul-13 13:00N 29°19' W 094°51'2 3.7
2018-Jul-13 12:31N 29°21' W 094°50'2 3.6
2018-Jul-13 12:01N 29°22' W 094°48'2 3.4
2018-Jul-13 11:30N 29°24' W 094°49'2 3.6
2018-Jul-13 11:00N 29°25' W 094°50'2 3.6
2018-Jul-13 10:27N 29°27' W 094°51'2 4.3
2018-Jul-13 10:00N 29°29' W 094°52'2 4.8
2018-Jul-13 09:30N 29°31' W 094°53'3 5.1
2018-Jul-13 09:01N 29°33' W 094°55'3 5.5
2018-Jul-13 08:30N 29°35' W 094°56'3 5.6
2018-Jul-13 08:01N 29°38' W 094°58'3 6.4
2018-Jul-13 07:30N 29°41' W 094°59'3 5.8
2018-Jul-13 07:00N 29°43' W 095°01'3 5.4
2018-Jul-13 06:30N 29°45' W 095°04'2 3.2
2018-Jul-13 05:46N 29°47' W 095°04'0 0.2
2018-Jul-13 05:23N 29°47' W 095°05'0 0.0
2018-Jul-13 04:06N 29°47' W 095°04'0 1.6
2018-Jul-13 03:59N 29°47' W 095°05'1 2.6
2018-Jul-13 03:30N 29°46' W 095°06'0 0.0
2018-Jul-13 02:45N 29°46' W 095°06'0 0.5
2018-Jul-13 02:09N 29°46' W 095°06'0 2.8
2018-Jul-13 01:59N 29°46' W 095°05'3 5.6
2018-Jul-13 01:27N 29°44' W 095°03'2 5.4
2018-Jul-13 01:00N 29°42' W 095°01'3 5.9
2018-Jul-13 00:30N 29°40' W 094°58'3 6.5
2018-Jul-13 00:00N 29°37' W 094°57'4 8.2
2018-Jul-12 23:31N 29°34' W 094°55'4 7.0
2018-Jul-12 22:58N 29°30' W 094°52'8 6.9
2018-Jul-12 21:52N 29°24' W 094°49'2 6.5
2018-Jul-12 21:30N 29°21' W 094°49'3 6.6
2018-Jul-12 21:00N 29°19' W 094°52'3 6.2
2018-Jul-12 20:31N 29°17' W 094°54'3 6.1
2018-Jul-12 20:01N 29°17' W 094°58'3 5.9
2018-Jul-12 19:30N 29°15' W 095°00'3 6.4
2018-Jul-12 19:01N 29°13' W 095°03'3 6.2
2018-Jul-12 18:31N 29°11' W 095°05'3 6.2
2018-Jul-12 18:01N 29°09' W 095°09'3 6.2
2018-Jul-12 17:31N 29°07' W 095°11'3 5.9
2018-Jul-12 17:01N 29°05' W 095°13'3 6.0
2018-Jul-12 16:31N 29°02' W 095°14'3 6.2
2018-Jul-12 16:00N 28°59' W 095°16'2 0.6
2018-Jul-12 12:44N 28°58' W 095°17'1 3.8
2018-Jul-12 12:31N 28°58' W 095°17'2 3.8
2018-Jul-12 12:00N 28°60' W 095°15'2 3.7
2018-Jul-12 11:29N 29°01' W 095°14'2 3.6
2018-Jul-12 11:00N 29°03' W 095°13'2 3.6
2018-Jul-12 10:30N 29°05' W 095°13'2 3.6
2018-Jul-12 10:01N 29°06' W 095°12'2 3.8
2018-Jul-12 09:30N 29°08' W 095°11'2 4.1
2018-Jul-12 09:00N 29°09' W 095°09'2 5.0
2018-Jul-12 08:30N 29°10' W 095°06'2 4.8
2018-Jul-12 08:00N 29°12' W 095°04'2 4.5
2018-Jul-12 07:31N 29°13' W 095°02'2 4.5
2018-Jul-12 07:00N 29°15' W 095°00'2 4.5
2018-Jul-12 06:30N 29°17' W 094°59'2 4.1
2018-Jul-12 06:00N 29°17' W 094°57'2 4.0
2018-Jul-12 05:30N 29°17' W 094°54'2 4.2
2018-Jul-12 05:01N 29°19' W 094°53'2 4.6
2018-Jul-12 04:30N 29°20' W 094°50'2 4.4
2018-Jul-12 04:00N 29°21' W 094°49'3 6.6
2018-Jul-12 03:30N 29°24' W 094°46'1 3.0
2018-Jul-12 03:00N 29°25' W 094°44'1 2.7
2018-Jul-12 02:28N 29°26' W 094°43'0 0.0
2018-Jul-12 01:58N 29°26' W 094°43'11 3.4
2018-Jul-11 22:47N 29°32' W 094°54'2 6.2
2018-Jul-11 22:31N 29°33' W 094°55'3 6.2
2018-Jul-11 22:01N 29°36' W 094°57'3 5.6
2018-Jul-11 21:31N 29°38' W 094°58'3 5.7
2018-Jul-11 21:00N 29°41' W 094°59'3 5.7
2018-Jul-11 20:30N 29°43' W 095°01'3 5.3
2018-Jul-11 19:59N 29°45' W 095°04'3 1.7
2018-Jul-11 17:59N 29°44' W 095°08'1 1.1
2018-Jul-11 17:26N 29°44' W 095°07'2 1.0
2018-Jul-11 15:20N 29°46' W 095°05'2 2.4
2018-Jul-11 14:28N 29°48' W 095°04'0 0.0
2018-Jul-11 14:01N 29°48' W 095°04'0 0.0
2018-Jul-11 13:30N 29°48' W 095°04'0 0.0
2018-Jul-11 09:17N 29°48' W 095°04'1 3.5
2018-Jul-11 09:00N 29°47' W 095°05'2 2.2
2018-Jul-11 08:10N 29°46' W 095°07'0 0.0
2018-Jul-11 07:58N 29°46' W 095°07'0 0.0
2018-Jul-11 07:22N 29°46' W 095°07'0 0.0
2018-Jul-11 06:37N 29°46' W 095°07'0 0.0
2018-Jul-11 06:22N 29°46' W 095°07'0 0.0
2018-Jul-11 05:55N 29°46' W 095°07'0 0.3
2018-Jul-11 05:18N 29°46' W 095°07'1 3.7
2018-Jul-11 05:00N 29°46' W 095°05'3 5.3
2018-Jul-11 04:29N 29°44' W 095°03'2 5.1
2018-Jul-11 04:00N 29°42' W 095°01'3 5.3
2018-Jul-11 03:30N 29°41' W 094°59'2 4.9
2018-Jul-11 03:00N 29°38' W 094°58'3 5.3
2018-Jul-11 02:30N 29°36' W 094°57'3 5.1
2018-Jul-11 02:00N 29°34' W 094°55'2 4.9
2018-Jul-11 01:30N 29°32' W 094°53'2 4.7
2018-Jul-11 01:00N 29°30' W 094°52'8 4.2
2018-Jul-10 23:01N 29°22' W 094°48'0 0.2
2018-Jul-10 20:51N 29°22' W 094°47'2 2.3
2018-Jul-10 20:12N 29°21' W 094°49'1 6.2
2018-Jul-10 19:59N 29°20' W 094°50'3 6.4
2018-Jul-10 19:30N 29°18' W 094°53'3 5.1
2018-Jul-10 19:00N 29°17' W 094°56'3 5.9
2018-Jul-10 18:30N 29°17' W 094°59'3 6.1
2018-Jul-10 18:00N 29°14' W 095°01'3 6.0
2018-Jul-10 17:30N 29°12' W 095°03'3 6.1
2018-Jul-10 17:00N 29°10' W 095°06'3 6.2
2018-Jul-10 16:30N 29°09' W 095°09'3 6.0
2018-Jul-10 16:00N 29°07' W 095°12'3 5.7
2018-Jul-10 15:30N 29°04' W 095°13'3 6.1
2018-Jul-10 15:00N 29°01' W 095°14'7 1.3
2018-Jul-10 09:49N 28°56' W 095°20'1 0.7
2018-Jul-10 08:55N 28°57' W 095°20'0 0.0
2018-Jul-10 07:31N 28°57' W 095°20'0 0.0
2018-Jul-10 07:25N 28°57' W 095°20'0 0.0
2018-Jul-10 06:58N 28°57' W 095°20'0 0.0
2018-Jul-10 06:25N 28°57' W 095°20'0 0.0
2018-Jul-10 05:58N 28°57' W 095°20'0 0.8
2018-Jul-10 05:27N 28°57' W 095°20'1 0.9
2018-Jul-10 04:52N 28°56' W 095°19'2 4.7
2018-Jul-10 04:27N 28°58' W 095°17'2 4.6
2018-Jul-10 03:56N 28°59' W 095°16'2 5.1
2018-Jul-10 03:30N 29°01' W 095°14'2 4.9
2018-Jul-10 03:00N 29°03' W 095°13'3 5.0
2018-Jul-10 02:30N 29°06' W 095°12'2 4.7
2018-Jul-10 02:01N 29°08' W 095°11'2 4.8
2018-Jul-10 01:31N 29°09' W 095°09'3 5.1
2018-Jul-10 01:01N 29°11' W 095°06'2 5.0
2018-Jul-10 00:30N 29°12' W 095°04'2 4.6
2018-Jul-10 00:01N 29°14' W 095°02'2 4.8
2018-Jul-09 23:30N 29°15' W 094°60'2 4.5
2018-Jul-09 23:01N 29°17' W 094°58'2 4.4
2018-Jul-09 22:30N 29°17' W 094°56'2 3.9
2018-Jul-09 22:00N 29°17' W 094°53'2 4.7
2018-Jul-09 21:31N 29°19' W 094°52'3 5.0
2018-Jul-09 20:59N 29°21' W 094°49'8 5.4
2018-Jul-09 19:30N 29°29' W 094°51'3 6.1
2018-Jul-09 19:00N 29°31' W 094°53'3 5.8
2018-Jul-09 18:30N 29°34' W 094°55'3 5.6
2018-Jul-09 18:00N 29°36' W 094°57'3 5.7
2018-Jul-09 17:31N 29°39' W 094°58'3 6.3
2018-Jul-09 17:01N 29°41' W 094°59'4 5.7
2018-Jul-09 16:15N 29°44' W 095°03'3 3.4
2018-Jul-09 15:23N 29°47' W 095°04'1 1.6
2018-Jul-09 14:56N 29°46' W 095°05'1 1.0
2018-Jul-09 13:45N 29°46' W 095°06'1 1.9
2018-Jul-09 13:16N 29°46' W 095°05'1 0.5
2018-Jul-09 11:56N 29°46' W 095°05'2 4.0
2018-Jul-09 11:30N 29°45' W 095°04'3 4.4
2018-Jul-09 10:53N 29°43' W 095°01'2 4.2
2018-Jul-09 10:29N 29°42' W 094°60'3 5.1
2018-Jul-09 09:58N 29°40' W 094°58'2 5.3
2018-Jul-09 09:30N 29°37' W 094°58'3 5.8
2018-Jul-09 09:01N 29°35' W 094°56'3 5.5
2018-Jul-09 08:30N 29°33' W 094°54'11 6.8
2018-Jul-09 06:54N 29°23' W 094°48'2 4.8
2018-Jul-09 06:29N 29°23' W 094°46'3 0.5
2018-Jul-09 01:18N 29°21' W 094°49'1 4.3
2018-Jul-09 01:00N 29°21' W 094°50'3 6.0
2018-Jul-09 00:30N 29°19' W 094°52'3 5.3
2018-Jul-09 00:00N 29°17' W 094°55'3 6.8
2018-Jul-08 23:31N 29°17' W 094°59'3 6.4
2018-Jul-08 23:00N 29°14' W 095°01'3 5.8
2018-Jul-08 22:30N 29°12' W 095°03'3 6.0
2018-Jul-08 22:00N 29°11' W 095°06'3 5.8
2018-Jul-08 21:30N 29°09' W 095°09'3 5.7
2018-Jul-08 21:00N 29°07' W 095°11'3 5.3
2018-Jul-08 20:30N 29°05' W 095°13'3 5.4
2018-Jul-08 19:58N 29°02' W 095°14'2 5.3
2018-Jul-08 19:30N 28°60' W 095°15'2 0.5
2018-Jul-08 14:44N 28°58' W 095°17'2 3.1
2018-Jul-08 14:11N 28°59' W 095°15'1 5.4
2018-Jul-08 14:01N 29°00' W 095°15'3 5.1
2018-Jul-08 13:30N 29°03' W 095°14'3 5.0
2018-Jul-08 13:00N 29°05' W 095°12'2 3.9
2018-Jul-08 12:30N 29°07' W 095°12'1 1.0
2018-Jul-08 12:00N 29°07' W 095°11'2 4.1
2018-Jul-08 11:30N 29°09' W 095°10'3 5.2
2018-Jul-08 11:00N 29°10' W 095°07'1 2.0
2018-Jul-08 10:29N 29°10' W 095°06'1 2.5
2018-Jul-08 10:01N 29°11' W 095°05'2 4.3
2018-Jul-08 09:30N 29°12' W 095°03'1 2.5
2018-Jul-08 09:00N 29°13' W 095°02'2 3.8
2018-Jul-08 08:30N 29°15' W 095°01'3 5.4
2018-Jul-08 08:01N 29°17' W 094°59'3 5.4
2018-Jul-08 07:30N 29°17' W 094°56'3 5.1
2018-Jul-08 07:01N 29°18' W 094°53'3 5.3
2018-Jul-08 06:30N 29°20' W 094°51'3 5.5
2018-Jul-08 06:01N 29°22' W 094°48'4 5.1
2018-Jul-08 05:19N 29°25' W 094°50'2 5.8
2018-Jul-08 05:00N 29°27' W 094°51'3 6.1
2018-Jul-08 04:30N 29°30' W 094°52'3 6.1
2018-Jul-08 04:00N 29°32' W 094°54'3 6.1
2018-Jul-08 03:31N 29°35' W 094°56'3 6.0
2018-Jul-08 02:58N 29°37' W 094°58'3 6.3
2018-Jul-08 02:30N 29°40' W 094°59'3 6.5
2018-Jul-08 02:00N 29°43' W 095°01'3 5.6
2018-Jul-08 01:30N 29°44' W 095°04'3 1.5
2018-Jul-07 23:45N 29°47' W 095°04'1 3.0
2018-Jul-07 23:15N 29°46' W 095°05'0 0.0
2018-Jul-07 22:38N 29°46' W 095°05'1 0.5
2018-Jul-07 19:48N 29°45' W 095°06'1 3.9
2018-Jul-07 19:28N 29°44' W 095°07'3 0.2
2018-Jul-07 07:53N 29°45' W 095°11'2 6.2
2018-Jul-07 07:29N 29°44' W 095°08'2 3.8
2018-Jul-07 06:50N 29°46' W 095°06'0 0.5
2018-Jul-07 06:21N 29°46' W 095°06'0 0.1
2018-Jul-06 21:51N 29°45' W 095°06'0 0.1
2018-Jul-06 20:47N 29°45' W 095°06'0 0.1
2018-Jul-06 19:26N 29°45' W 095°06'1 2.3
2018-Jul-06 18:56N 29°46' W 095°05'1 0.5
2018-Jul-06 16:37N 29°47' W 095°05'1 4.2
2018-Jul-06 16:27N 29°47' W 095°05'1 0.7
2018-Jul-06 15:15N 29°47' W 095°06'1 3.8
2018-Jul-06 14:59N 29°47' W 095°05'  

Dump ship's entire track history